sensor_id;sensor_type;location;lat;lon;timestamp;temperature;humidity
27940;DHT22;15275;51.716;14.324;2023-04-10T00:01:11;7.90;79.10
27940;DHT22;15275;51.716;14.324;2023-04-10T00:03:37;7.90;79.00
27940;DHT22;15275;51.716;14.324;2023-04-10T00:06:03;7.90;79.00
27940;DHT22;15275;51.716;14.324;2023-04-10T00:08:29;7.80;79.10
27940;DHT22;15275;51.716;14.324;2023-04-10T00:10:55;7.80;79.20
27940;DHT22;15275;51.716;14.324;2023-04-10T00:13:21;7.80;79.10
27940;DHT22;15275;51.716;14.324;2023-04-10T00:15:47;7.70;79.20
27940;DHT22;15275;51.716;14.324;2023-04-10T00:18:14;7.70;79.30
27940;DHT22;15275;51.716;14.324;2023-04-10T00:20:40;7.70;79.50
27940;DHT22;15275;51.716;14.324;2023-04-10T00:23:06;7.60;79.60
27940;DHT22;15275;51.716;14.324;2023-04-10T00:25:32;7.60;79.70
27940;DHT22;15275;51.716;14.324;2023-04-10T00:27:58;7.60;79.70
27940;DHT22;15275;51.716;14.324;2023-04-10T00:30:24;7.60;79.70
27940;DHT22;15275;51.716;14.324;2023-04-10T00:32:50;7.60;79.70
27940;DHT22;15275;51.716;14.324;2023-04-10T00:35:16;7.50;79.70
27940;DHT22;15275;51.716;14.324;2023-04-10T00:37:42;7.50;79.70
27940;DHT22;15275;51.716;14.324;2023-04-10T00:40:08;7.50;79.70
27940;DHT22;15275;51.716;14.324;2023-04-10T00:42:34;7.40;79.70
27940;DHT22;15275;51.716;14.324;2023-04-10T00:45:00;7.40;79.70
27940;DHT22;15275;51.716;14.324;2023-04-10T00:47:26;7.40;79.70
27940;DHT22;15275;51.716;14.324;2023-04-10T00:49:52;7.40;79.70
27940;DHT22;15275;51.716;14.324;2023-04-10T00:52:19;7.40;79.70
27940;DHT22;15275;51.716;14.324;2023-04-10T00:54:45;7.30;79.70
27940;DHT22;15275;51.716;14.324;2023-04-10T00:57:11;7.30;79.80
27940;DHT22;15275;51.716;14.324;2023-04-10T00:59:37;7.30;80.00
27940;DHT22;15275;51.716;14.324;2023-04-10T01:02:03;7.30;80.30
27940;DHT22;15275;51.716;14.324;2023-04-10T01:04:29;7.30;80.70
27940;DHT22;15275;51.716;14.324;2023-04-10T01:10:04;7.40;81.20
27940;DHT22;15275;51.716;14.324;2023-04-10T01:13:10;7.40;81.50
27940;DHT22;15275;51.716;14.324;2023-04-10T01:15:46;7.50;81.70
27940;DHT22;15275;51.716;14.324;2023-04-10T01:18:23;7.60;81.90
27940;DHT22;15275;51.716;14.324;2023-04-10T01:20:53;7.70;82.10
27940;DHT22;15275;51.716;14.324;2023-04-10T01:29:35;7.90;82.40
27940;DHT22;15275;51.716;14.324;2023-04-10T01:32:12;8.00;82.30
27940;DHT22;15275;51.716;14.324;2023-04-10T01:34:44;8.10;82.30
27940;DHT22;15275;51.716;14.324;2023-04-10T01:37:15;8.10;82.30
27940;DHT22;15275;51.716;14.324;2023-04-10T01:39:45;8.20;82.20
27940;DHT22;15275;51.716;14.324;2023-04-10T01:42:17;8.20;81.70
27940;DHT22;15275;51.716;14.324;2023-04-10T01:44:45;8.30;82.00
27940;DHT22;15275;51.716;14.324;2023-04-10T01:47:14;8.30;81.90
27940;DHT22;15275;51.716;14.324;2023-04-10T01:49:45;8.40;81.90
27940;DHT22;15275;51.716;14.324;2023-04-10T01:52:13;8.40;81.90
27940;DHT22;15275;51.716;14.324;2023-04-10T01:54:40;8.40;81.80
27940;DHT22;15275;51.716;14.324;2023-04-10T01:57:07;8.40;81.80
27940;DHT22;15275;51.716;14.324;2023-04-10T01:59:35;8.40;81.80
27940;DHT22;15275;51.716;14.324;2023-04-10T02:02:02;8.50;81.90
27940;DHT22;15275;51.716;14.324;2023-04-10T02:04:29;8.50;81.80
27940;DHT22;15275;51.716;14.324;2023-04-10T02:07:21;8.50;81.90
27940;DHT22;15275;51.716;14.324;2023-04-10T02:10:14;8.50;81.60
27940;DHT22;15275;51.716;14.324;2023-04-10T02:12:53;8.60;81.80
27940;DHT22;15275;51.716;14.324;2023-04-10T02:15:23;8.60;81.90
27940;DHT22;15275;51.716;14.324;2023-04-10T02:17:51;8.60;81.90
27940;DHT22;15275;51.716;14.324;2023-04-10T02:20:18;8.60;82.00
27940;DHT22;15275;51.716;14.324;2023-04-10T02:22:44;8.70;82.10
27940;DHT22;15275;51.716;14.324;2023-04-10T02:25:10;8.70;82.20
27940;DHT22;15275;51.716;14.324;2023-04-10T02:27:37;8.70;82.20
27940;DHT22;15275;51.716;14.324;2023-04-10T02:30:04;8.80;82.30
27940;DHT22;15275;51.716;14.324;2023-04-10T02:32:31;8.80;82.30
27940;DHT22;15275;51.716;14.324;2023-04-10T02:35:00;8.90;82.30
27940;DHT22;15275;51.716;14.324;2023-04-10T02:37:29;8.90;82.30
27940;DHT22;15275;51.716;14.324;2023-04-10T02:39:55;8.90;82.30
27940;DHT22;15275;51.716;14.324;2023-04-10T02:42:21;9.00;82.30
27940;DHT22;15275;51.716;14.324;2023-04-10T02:44:47;9.00;82.30
27940;DHT22;15275;51.716;14.324;2023-04-10T02:47:13;9.10;82.30
27940;DHT22;15275;51.716;14.324;2023-04-10T02:49:40;9.10;82.30
27940;DHT22;15275;51.716;14.324;2023-04-10T02:52:06;9.20;82.20
27940;DHT22;15275;51.716;14.324;2023-04-10T02:54:32;9.20;82.20
27940;DHT22;15275;51.716;14.324;2023-04-10T02:56:59;9.20;82.20
27940;DHT22;15275;51.716;14.324;2023-04-10T02:59:24;9.20;82.20
27940;DHT22;15275;51.716;14.324;2023-04-10T03:01:50;9.30;82.20
27940;DHT22;15275;51.716;14.324;2023-04-10T03:04:17;9.30;82.20
27940;DHT22;15275;51.716;14.324;2023-04-10T03:06:43;9.40;82.20
27940;DHT22;15275;51.716;14.324;2023-04-10T03:09:10;9.40;82.30
27940;DHT22;15275;51.716;14.324;2023-04-10T03:11:36;9.40;82.20
27940;DHT22;15275;51.716;14.324;2023-04-10T03:14:01;9.50;82.10
27940;DHT22;15275;51.716;14.324;2023-04-10T03:16:28;9.50;82.10
27940;DHT22;15275;51.716;14.324;2023-04-10T03:18:53;9.50;82.00
27940;DHT22;15275;51.716;14.324;2023-04-10T03:21:20;9.50;81.90
27940;DHT22;15275;51.716;14.324;2023-04-10T03:23:46;9.60;81.80
27940;DHT22;15275;51.716;14.324;2023-04-10T03:26:12;9.60;81.60
27940;DHT22;15275;51.716;14.324;2023-04-10T03:28:38;9.60;81.40
27940;DHT22;15275;51.716;14.324;2023-04-10T03:31:04;9.60;81.10
27940;DHT22;15275;51.716;14.324;2023-04-10T03:33:30;9.60;80.80
27940;DHT22;15275;51.716;14.324;2023-04-10T03:35:57;9.50;80.50
27940;DHT22;15275;51.716;14.324;2023-04-10T03:38:23;9.50;80.40
27940;DHT22;15275;51.716;14.324;2023-04-10T03:40:49;9.40;80.20
27940;DHT22;15275;51.716;14.324;2023-04-10T03:43:15;9.40;80.20
27940;DHT22;15275;51.716;14.324;2023-04-10T03:45:41;9.30;80.20
27940;DHT22;15275;51.716;14.324;2023-04-10T03:48:07;9.30;80.30
27940;DHT22;15275;51.716;14.324;2023-04-10T03:50:32;9.20;80.30
27940;DHT22;15275;51.716;14.324;2023-04-10T03:52:59;9.20;80.30
27940;DHT22;15275;51.716;14.324;2023-04-10T03:55:26;9.20;80.20
27940;DHT22;15275;51.716;14.324;2023-04-10T03:57:52;9.10;80.10
27940;DHT22;15275;51.716;14.324;2023-04-10T04:00:19;9.10;80.00
27940;DHT22;15275;51.716;14.324;2023-04-10T04:02:46;9.00;79.90
27940;DHT22;15275;51.716;14.324;2023-04-10T04:05:12;9.00;79.80
27940;DHT22;15275;51.716;14.324;2023-04-10T04:07:38;8.90;79.60
27940;DHT22;15275;51.716;14.324;2023-04-10T04:10:04;8.80;79.60
27940;DHT22;15275;51.716;14.324;2023-04-10T04:12:30;8.80;79.40
27940;DHT22;15275;51.716;14.324;2023-04-10T04:14:56;8.70;79.40
27940;DHT22;15275;51.716;14.324;2023-04-10T04:17:22;8.60;79.30
27940;DHT22;15275;51.716;14.324;2023-04-10T04:19:47;8.50;79.20
27940;DHT22;15275;51.716;14.324;2023-04-10T04:22:14;8.40;79.30
27940;DHT22;15275;51.716;14.324;2023-04-10T04:24:40;8.40;79.40
27940;DHT22;15275;51.716;14.324;2023-04-10T04:27:06;8.30;79.60
27940;DHT22;15275;51.716;14.324;2023-04-10T04:29:32;8.20;79.80
27940;DHT22;15275;51.716;14.324;2023-04-10T04:31:58;8.20;80.00
27940;DHT22;15275;51.716;14.324;2023-04-10T04:34:23;8.10;80.20
27940;DHT22;15275;51.716;14.324;2023-04-10T04:36:49;8.10;80.30
27940;DHT22;15275;51.716;14.324;2023-04-10T04:39:15;8.10;80.40
27940;DHT22;15275;51.716;14.324;2023-04-10T04:41:41;8.00;80.40
27940;DHT22;15275;51.716;14.324;2023-04-10T04:44:08;8.00;80.50
27940;DHT22;15275;51.716;14.324;2023-04-10T04:46:34;8.00;80.50
27940;DHT22;15275;51.716;14.324;2023-04-10T04:48:59;8.00;80.60
27940;DHT22;15275;51.716;14.324;2023-04-10T04:51:25;8.00;80.70
27940;DHT22;15275;51.716;14.324;2023-04-10T04:53:51;8.00;80.80
27940;DHT22;15275;51.716;14.324;2023-04-10T04:56:17;8.00;81.00
27940;DHT22;15275;51.716;14.324;2023-04-10T04:58:43;8.00;81.10
27940;DHT22;15275;51.716;14.324;2023-04-10T05:01:09;8.00;81.20
27940;DHT22;15275;51.716;14.324;2023-04-10T05:03:35;8.00;81.30
27940;DHT22;15275;51.716;14.324;2023-04-10T05:06:00;8.00;81.40
27940;DHT22;15275;51.716;14.324;2023-04-10T05:08:26;8.10;81.50
27940;DHT22;15275;51.716;14.324;2023-04-10T05:10:52;8.10;81.50
27940;DHT22;15275;51.716;14.324;2023-04-10T05:13:18;8.10;81.50
27940;DHT22;15275;51.716;14.324;2023-04-10T05:15:44;8.20;81.50
27940;DHT22;15275;51.716;14.324;2023-04-10T05:18:10;8.20;81.60
27940;DHT22;15275;51.716;14.324;2023-04-10T05:20:38;8.20;81.60
27940;DHT22;15275;51.716;14.324;2023-04-10T05:23:04;8.30;81.70
27940;DHT22;15275;51.716;14.324;2023-04-10T05:25:30;8.30;81.70
27940;DHT22;15275;51.716;14.324;2023-04-10T05:27:56;8.40;81.80
27940;DHT22;15275;51.716;14.324;2023-04-10T05:30:22;8.40;81.80
27940;DHT22;15275;51.716;14.324;2023-04-10T05:32:49;8.40;81.90
27940;DHT22;15275;51.716;14.324;2023-04-10T05:35:14;8.50;81.90
27940;DHT22;15275;51.716;14.324;2023-04-10T05:37:40;8.50;82.00
27940;DHT22;15275;51.716;14.324;2023-04-10T05:40:07;8.60;82.10
27940;DHT22;15275;51.716;14.324;2023-04-10T05:42:33;8.70;82.10
27940;DHT22;15275;51.716;14.324;2023-04-10T05:44:59;8.70;82.20
27940;DHT22;15275;51.716;14.324;2023-04-10T05:47:25;8.80;82.20
27940;DHT22;15275;51.716;14.324;2023-04-10T05:49:50;8.90;82.30
27940;DHT22;15275;51.716;14.324;2023-04-10T05:52:16;8.90;82.30
27940;DHT22;15275;51.716;14.324;2023-04-10T05:54:42;9.00;82.40
27940;DHT22;15275;51.716;14.324;2023-04-10T05:57:08;9.10;82.50
27940;DHT22;15275;51.716;14.324;2023-04-10T05:59:33;9.20;82.60
27940;DHT22;15275;51.716;14.324;2023-04-10T06:01:59;9.30;82.80
27940;DHT22;15275;51.716;14.324;2023-04-10T06:04:26;9.30;83.00
27940;DHT22;15275;51.716;14.324;2023-04-10T06:06:52;9.40;83.20
27940;DHT22;15275;51.716;14.324;2023-04-10T06:09:18;9.60;83.50
27940;DHT22;15275;51.716;14.324;2023-04-10T06:11:44;9.70;84.00
27940;DHT22;15275;51.716;14.324;2023-04-10T06:14:10;9.90;84.20
27940;DHT22;15275;51.716;14.324;2023-04-10T06:16:35;10.10;83.90
27940;DHT22;15275;51.716;14.324;2023-04-10T06:19:01;10.20;83.90
27940;DHT22;15275;51.716;14.324;2023-04-10T06:21:27;10.40;83.70
27940;DHT22;15275;51.716;14.324;2023-04-10T06:23:53;10.50;83.50
27940;DHT22;15275;51.716;14.324;2023-04-10T06:26:19;10.60;83.50
27940;DHT22;15275;51.716;14.324;2023-04-10T06:28:44;10.70;83.40
27940;DHT22;15275;51.716;14.324;2023-04-10T06:31:11;10.80;83.30
27940;DHT22;15275;51.716;14.324;2023-04-10T06:33:37;10.90;83.30
27940;DHT22;15275;51.716;14.324;2023-04-10T06:36:03;11.00;83.40
27940;DHT22;15275;51.716;14.324;2023-04-10T06:38:29;11.10;83.60
27940;DHT22;15275;51.716;14.324;2023-04-10T06:40:55;11.20;83.60
27940;DHT22;15275;51.716;14.324;2023-04-10T06:43:22;11.30;83.40
27940;DHT22;15275;51.716;14.324;2023-04-10T06:45:48;11.40;83.00
27940;DHT22;15275;51.716;14.324;2023-04-10T06:48:14;11.50;82.90
27940;DHT22;15275;51.716;14.324;2023-04-10T06:50:39;11.60;83.00
27940;DHT22;15275;51.716;14.324;2023-04-10T06:53:05;11.60;82.80
27940;DHT22;15275;51.716;14.324;2023-04-10T06:55:31;11.70;82.40
27940;DHT22;15275;51.716;14.324;2023-04-10T06:57:57;11.80;82.50
27940;DHT22;15275;51.716;14.324;2023-04-10T07:00:23;11.90;82.60
27940;DHT22;15275;51.716;14.324;2023-04-10T07:02:49;12.00;82.60
27940;DHT22;15275;51.716;14.324;2023-04-10T07:05:16;12.10;82.40
27940;DHT22;15275;51.716;14.324;2023-04-10T07:07:42;12.20;82.40
27940;DHT22;15275;51.716;14.324;2023-04-10T07:10:08;12.30;82.20
27940;DHT22;15275;51.716;14.324;2023-04-10T07:12:35;12.30;82.40
27940;DHT22;15275;51.716;14.324;2023-04-10T07:15:01;12.50;82.50
27940;DHT22;15275;51.716;14.324;2023-04-10T07:17:26;12.60;82.40
27940;DHT22;15275;51.716;14.324;2023-04-10T07:19:52;12.70;82.40
27940;DHT22;15275;51.716;14.324;2023-04-10T07:22:18;12.80;81.90
27940;DHT22;15275;51.716;14.324;2023-04-10T07:24:44;12.80;81.30
27940;DHT22;15275;51.716;14.324;2023-04-10T07:27:10;12.90;81.20
27940;DHT22;15275;51.716;14.324;2023-04-10T07:29:37;12.90;81.10
27940;DHT22;15275;51.716;14.324;2023-04-10T07:32:03;13.00;81.30
27940;DHT22;15275;51.716;14.324;2023-04-10T07:34:30;13.00;81.30
27940;DHT22;15275;51.716;14.324;2023-04-10T07:36:56;13.00;81.10
27940;DHT22;15275;51.716;14.324;2023-04-10T07:39:22;13.10;80.80
27940;DHT22;15275;51.716;14.324;2023-04-10T07:41:48;13.10;80.50
27940;DHT22;15275;51.716;14.324;2023-04-10T07:44:14;13.10;80.40
27940;DHT22;15275;51.716;14.324;2023-04-10T07:46:40;13.10;80.40
27940;DHT22;15275;51.716;14.324;2023-04-10T07:49:06;13.20;80.50
27940;DHT22;15275;51.716;14.324;2023-04-10T07:51:32;13.20;80.50
27940;DHT22;15275;51.716;14.324;2023-04-10T07:53:57;13.20;80.10
27940;DHT22;15275;51.716;14.324;2023-04-10T07:56:23;13.20;80.30
27940;DHT22;15275;51.716;14.324;2023-04-10T07:58:50;13.30;80.40
27940;DHT22;15275;51.716;14.324;2023-04-10T08:01:16;13.30;80.80
27940;DHT22;15275;51.716;14.324;2023-04-10T08:03:45;13.40;80.80
27940;DHT22;15275;51.716;14.324;2023-04-10T08:06:11;13.40;80.80
27940;DHT22;15275;51.716;14.324;2023-04-10T08:08:38;13.50;80.90
27940;DHT22;15275;51.716;14.324;2023-04-10T08:11:31;13.60;80.80
27940;DHT22;15275;51.716;14.324;2023-04-10T08:13:59;13.70;79.20
27940;DHT22;15275;51.716;14.324;2023-04-10T08:16:30;13.80;80.70
27940;DHT22;15275;51.716;14.324;2023-04-10T08:18:59;13.90;80.40
27940;DHT22;15275;51.716;14.324;2023-04-10T08:21:26;13.90;80.10
27940;DHT22;15275;51.716;14.324;2023-04-10T08:23:54;14.00;80.10
27940;DHT22;15275;51.716;14.324;2023-04-10T08:26:21;14.10;80.10
27940;DHT22;15275;51.716;14.324;2023-04-10T08:28:49;14.20;80.20
27940;DHT22;15275;51.716;14.324;2023-04-10T08:31:17;14.30;79.80
27940;DHT22;15275;51.716;14.324;2023-04-10T08:33:43;14.40;79.80
27940;DHT22;15275;51.716;14.324;2023-04-10T08:36:10;14.50;79.80
27940;DHT22;15275;51.716;14.324;2023-04-10T08:38:37;14.60;79.60
27940;DHT22;15275;51.716;14.324;2023-04-10T08:41:05;14.70;79.50
27940;DHT22;15275;51.716;14.324;2023-04-10T08:43:31;14.80;79.50
27940;DHT22;15275;51.716;14.324;2023-04-10T08:45:59;15.00;79.30
27940;DHT22;15275;51.716;14.324;2023-04-10T08:48:31;15.10;79.20
27940;DHT22;15275;51.716;14.324;2023-04-10T08:51:03;15.20;78.70
27940;DHT22;15275;51.716;14.324;2023-04-10T08:53:30;15.30;78.80
27940;DHT22;15275;51.716;14.324;2023-04-10T08:55:58;15.40;78.60
27940;DHT22;15275;51.716;14.324;2023-04-10T08:58:27;15.50;78.70
27940;DHT22;15275;51.716;14.324;2023-04-10T09:00:53;15.70;78.80
27940;DHT22;15275;51.716;14.324;2023-04-10T09:03:19;15.80;78.60
27940;DHT22;15275;51.716;14.324;2023-04-10T09:05:45;16.00;78.70
27940;DHT22;15275;51.716;14.324;2023-04-10T09:08:13;16.10;77.90
27940;DHT22;15275;51.716;14.324;2023-04-10T09:10:39;16.20;76.90
27940;DHT22;15275;51.716;14.324;2023-04-10T09:13:05;16.20;76.80
27940;DHT22;15275;51.716;14.324;2023-04-10T09:15:54;16.20;76.20
27940;DHT22;15275;51.716;14.324;2023-04-10T09:18:21;16.30;75.30
27940;DHT22;15275;51.716;14.324;2023-04-10T09:20:47;16.30;76.60
27940;DHT22;15275;51.716;14.324;2023-04-10T09:23:22;16.30;76.80
27940;DHT22;15275;51.716;14.324;2023-04-10T09:25:48;16.30;75.90
27940;DHT22;15275;51.716;14.324;2023-04-10T09:28:13;16.30;76.40
27940;DHT22;15275;51.716;14.324;2023-04-10T09:30:41;16.30;76.20
27940;DHT22;15275;51.716;14.324;2023-04-10T09:33:26;16.40;76.30
27940;DHT22;15275;51.716;14.324;2023-04-10T09:35:53;16.40;75.00
27940;DHT22;15275;51.716;14.324;2023-04-10T09:38:20;16.40;76.30
27940;DHT22;15275;51.716;14.324;2023-04-10T09:40:47;16.40;76.10
27940;DHT22;15275;51.716;14.324;2023-04-10T09:43:24;16.40;75.90
27940;DHT22;15275;51.716;14.324;2023-04-10T09:45:53;16.40;75.00
27940;DHT22;15275;51.716;14.324;2023-04-10T09:48:22;16.50;75.80
27940;DHT22;15275;51.716;14.324;2023-04-10T09:50:49;16.50;75.90
27940;DHT22;15275;51.716;14.324;2023-04-10T09:53:19;16.50;75.40
27940;DHT22;15275;51.716;14.324;2023-04-10T09:55:47;16.60;75.30
27940;DHT22;15275;51.716;14.324;2023-04-10T09:58:14;16.60;75.50
27940;DHT22;15275;51.716;14.324;2023-04-10T10:03:11;16.60;75.60
27940;DHT22;15275;51.716;14.324;2023-04-10T10:05:43;16.70;75.20
27940;DHT22;15275;51.716;14.324;2023-04-10T10:08:15;16.70;75.20
27940;DHT22;15275;51.716;14.324;2023-04-10T10:10:47;16.70;75.40
27940;DHT22;15275;51.716;14.324;2023-04-10T10:13:23;16.80;75.00
27940;DHT22;15275;51.716;14.324;2023-04-10T10:16:05;16.90;74.80
27940;DHT22;15275;51.716;14.324;2023-04-10T10:21:25;17.10;73.90
27940;DHT22;15275;51.716;14.324;2023-04-10T10:23:54;17.20;75.10
27940;DHT22;15275;51.716;14.324;2023-04-10T10:26:23;17.30;74.90
27940;DHT22;15275;51.716;14.324;2023-04-10T10:28:52;17.30;74.30
27940;DHT22;15275;51.716;14.324;2023-04-10T10:31:21;17.40;74.40
27940;DHT22;15275;51.716;14.324;2023-04-10T10:33:51;17.50;74.20
27940;DHT22;15275;51.716;14.324;2023-04-10T10:36:18;17.60;73.10
27940;DHT22;15275;51.716;14.324;2023-04-10T10:45:14;17.90;73.00
27940;DHT22;15275;51.716;14.324;2023-04-10T10:47:46;18.00;70.80
27940;DHT22;15275;51.716;14.324;2023-04-10T10:50:14;18.10;72.20
27940;DHT22;15275;51.716;14.324;2023-04-10T10:58:04;18.40;70.50
27940;DHT22;15275;51.716;14.324;2023-04-10T11:05:58;18.70;71.00
27940;DHT22;15275;51.716;14.324;2023-04-10T11:11:12;18.80;70.80
27940;DHT22;15275;51.716;14.324;2023-04-10T11:14:25;18.80;69.90
27940;DHT22;15275;51.716;14.324;2023-04-10T11:19:14;18.90;70.40
27940;DHT22;15275;51.716;14.324;2023-04-10T11:22:05;19.00;66.70
27940;DHT22;15275;51.716;14.324;2023-04-10T11:24:55;19.00;66.70
27940;DHT22;15275;51.716;14.324;2023-04-10T11:27:45;19.10;66.80
27940;DHT22;15275;51.716;14.324;2023-04-10T11:32:57;19.20;67.60
27940;DHT22;15275;51.716;14.324;2023-04-10T11:35:25;19.30;69.50
27940;DHT22;15275;51.716;14.324;2023-04-10T11:38:10;19.40;69.10
27940;DHT22;15275;51.716;14.324;2023-04-10T11:40:54;19.40;66.50
27940;DHT22;15275;51.716;14.324;2023-04-10T11:43:21;19.50;66.30
27940;DHT22;15275;51.716;14.324;2023-04-10T11:45:47;19.50;69.00
27940;DHT22;15275;51.716;14.324;2023-04-10T11:48:14;19.60;68.90
27940;DHT22;15275;51.716;14.324;2023-04-10T11:50:42;19.70;68.10
27940;DHT22;15275;51.716;14.324;2023-04-10T11:53:18;19.80;67.90
27940;DHT22;15275;51.716;14.324;2023-04-10T11:55:44;19.80;64.50
27940;DHT22;15275;51.716;14.324;2023-04-10T12:03:46;19.90;65.40
27940;DHT22;15275;51.716;14.324;2023-04-10T12:06:13;19.90;62.90
27940;DHT22;15275;51.716;14.324;2023-04-10T12:08:44;19.90;66.40
27940;DHT22;15275;51.716;14.324;2023-04-10T12:11:12;19.90;65.90
27940;DHT22;15275;51.716;14.324;2023-04-10T12:13:39;19.90;65.90
27940;DHT22;15275;51.716;14.324;2023-04-10T12:16:09;19.90;65.50
27940;DHT22;15275;51.716;14.324;2023-04-10T12:18:35;19.90;65.20
27940;DHT22;15275;51.716;14.324;2023-04-10T12:21:03;20.00;65.40
27940;DHT22;15275;51.716;14.324;2023-04-10T12:23:29;20.00;64.80
27940;DHT22;15275;51.716;14.324;2023-04-10T12:26:16;20.00;64.80
27940;DHT22;15275;51.716;14.324;2023-04-10T12:28:56;20.00;60.50
27940;DHT22;15275;51.716;14.324;2023-04-10T12:31:27;20.10;62.10
27940;DHT22;15275;51.716;14.324;2023-04-10T12:33:53;20.10;64.30
27940;DHT22;15275;51.716;14.324;2023-04-10T12:36:29;20.10;64.60
27940;DHT22;15275;51.716;14.324;2023-04-10T12:39:00;20.10;64.20
27940;DHT22;15275;51.716;14.324;2023-04-10T12:41:30;20.20;64.50
27940;DHT22;15275;51.716;14.324;2023-04-10T12:44:11;20.20;64.40
27940;DHT22;15275;51.716;14.324;2023-04-10T12:46:39;20.30;62.20
27940;DHT22;15275;51.716;14.324;2023-04-10T12:49:09;20.30;63.80
27940;DHT22;15275;51.716;14.324;2023-04-10T12:51:50;20.30;63.40
27940;DHT22;15275;51.716;14.324;2023-04-10T12:54:35;20.40;62.20
27940;DHT22;15275;51.716;14.324;2023-04-10T12:57:02;20.50;61.30
27940;DHT22;15275;51.716;14.324;2023-04-10T12:59:31;20.50;63.70
27940;DHT22;15275;51.716;14.324;2023-04-10T13:01:57;20.50;64.40
27940;DHT22;15275;51.716;14.324;2023-04-10T13:04:23;20.60;62.60
27940;DHT22;15275;51.716;14.324;2023-04-10T13:06:49;20.60;62.80
27940;DHT22;15275;51.716;14.324;2023-04-10T13:09:17;20.70;63.00
27940;DHT22;15275;51.716;14.324;2023-04-10T13:11:43;20.70;63.10
27940;DHT22;15275;51.716;14.324;2023-04-10T13:14:09;20.70;63.10
27940;DHT22;15275;51.716;14.324;2023-04-10T13:16:35;20.80;63.00
27940;DHT22;15275;51.716;14.324;2023-04-10T13:19:01;20.80;61.70
27940;DHT22;15275;51.716;14.324;2023-04-10T13:21:28;20.80;61.80
27940;DHT22;15275;51.716;14.324;2023-04-10T13:23:55;20.80;61.30
27940;DHT22;15275;51.716;14.324;2023-04-10T13:26:21;20.80;61.80
27940;DHT22;15275;51.716;14.324;2023-04-10T13:28:48;20.80;61.90
27940;DHT22;15275;51.716;14.324;2023-04-10T13:31:14;20.80;61.70
27940;DHT22;15275;51.716;14.324;2023-04-10T13:33:44;20.80;61.90
27940;DHT22;15275;51.716;14.324;2023-04-10T13:36:13;20.80;61.60
27940;DHT22;15275;51.716;14.324;2023-04-10T13:38:40;20.80;61.80
27940;DHT22;15275;51.716;14.324;2023-04-10T13:41:06;20.90;61.90
27940;DHT22;15275;51.716;14.324;2023-04-10T13:43:32;20.90;62.40
27940;DHT22;15275;51.716;14.324;2023-04-10T13:45:57;20.90;61.80
27940;DHT22;15275;51.716;14.324;2023-04-10T13:48:23;20.90;61.80
27940;DHT22;15275;51.716;14.324;2023-04-10T13:50:49;21.00;60.90
27940;DHT22;15275;51.716;14.324;2023-04-10T13:53:15;21.00;60.70
27940;DHT22;15275;51.716;14.324;2023-04-10T13:55:41;20.90;60.50
27940;DHT22;15275;51.716;14.324;2023-04-10T13:58:10;20.90;60.70
27940;DHT22;15275;51.716;14.324;2023-04-10T14:00:38;20.80;60.40
27940;DHT22;15275;51.716;14.324;2023-04-10T14:03:04;20.80;60.80
27940;DHT22;15275;51.716;14.324;2023-04-10T14:05:34;20.70;60.90
27940;DHT22;15275;51.716;14.324;2023-04-10T14:08:00;20.70;61.20
27940;DHT22;15275;51.716;14.324;2023-04-10T14:10:26;20.60;60.80
27940;DHT22;15275;51.716;14.324;2023-04-10T14:12:52;20.60;60.90
27940;DHT22;15275;51.716;14.324;2023-04-10T14:15:17;20.60;61.00
27940;DHT22;15275;51.716;14.324;2023-04-10T14:17:43;20.50;60.80
27940;DHT22;15275;51.716;14.324;2023-04-10T14:20:09;20.50;60.70
27940;DHT22;15275;51.716;14.324;2023-04-10T14:22:38;20.50;60.90
27940;DHT22;15275;51.716;14.324;2023-04-10T14:25:04;20.50;60.60
27940;DHT22;15275;51.716;14.324;2023-04-10T14:27:32;20.60;60.90
27940;DHT22;15275;51.716;14.324;2023-04-10T14:29:58;20.60;61.60
27940;DHT22;15275;51.716;14.324;2023-04-10T14:32:23;20.70;61.50
27940;DHT22;15275;51.716;14.324;2023-04-10T14:34:49;20.80;60.80
27940;DHT22;15275;51.716;14.324;2023-04-10T14:37:15;21.00;61.40
27940;DHT22;15275;51.716;14.324;2023-04-10T14:39:43;21.10;61.20
27940;DHT22;15275;51.716;14.324;2023-04-10T14:42:09;21.20;61.40
27940;DHT22;15275;51.716;14.324;2023-04-10T14:44:35;21.40;60.90
27940;DHT22;15275;51.716;14.324;2023-04-10T14:47:00;21.50;60.50
27940;DHT22;15275;51.716;14.324;2023-04-10T14:49:26;21.60;60.30
27940;DHT22;15275;51.716;14.324;2023-04-10T14:51:52;21.60;59.90
27940;DHT22;15275;51.716;14.324;2023-04-10T14:54:18;21.60;59.50
27940;DHT22;15275;51.716;14.324;2023-04-10T14:56:47;21.60;60.00
27940;DHT22;15275;51.716;14.324;2023-04-10T14:59:13;21.60;60.00
27940;DHT22;15275;51.716;14.324;2023-04-10T15:01:40;21.70;59.70
27940;DHT22;15275;51.716;14.324;2023-04-10T15:04:06;21.70;59.50
27940;DHT22;15275;51.716;14.324;2023-04-10T15:06:32;21.60;58.90
27940;DHT22;15275;51.716;14.324;2023-04-10T15:08:59;21.60;59.00
27940;DHT22;15275;51.716;14.324;2023-04-10T15:11:25;21.60;59.50
27940;DHT22;15275;51.716;14.324;2023-04-10T15:13:51;21.60;59.40
27940;DHT22;15275;51.716;14.324;2023-04-10T15:16:17;21.60;58.90
27940;DHT22;15275;51.716;14.324;2023-04-10T15:18:46;21.50;59.20
27940;DHT22;15275;51.716;14.324;2023-04-10T15:21:13;21.50;58.60
27940;DHT22;15275;51.716;14.324;2023-04-10T15:23:38;21.50;59.40
27940;DHT22;15275;51.716;14.324;2023-04-10T15:26:12;21.50;59.30
27940;DHT22;15275;51.716;14.324;2023-04-10T15:28:40;21.50;58.40
27940;DHT22;15275;51.716;14.324;2023-04-10T15:31:07;21.60;59.30
27940;DHT22;15275;51.716;14.324;2023-04-10T15:33:34;21.60;59.10
27940;DHT22;15275;51.716;14.324;2023-04-10T15:36:02;21.60;59.00
27940;DHT22;15275;51.716;14.324;2023-04-10T15:38:28;21.60;57.90
27940;DHT22;15275;51.716;14.324;2023-04-10T15:40:55;21.60;58.00
27940;DHT22;15275;51.716;14.324;2023-04-10T15:43:21;21.60;58.00
27940;DHT22;15275;51.716;14.324;2023-04-10T15:45:47;21.50;57.40
27940;DHT22;15275;51.716;14.324;2023-04-10T15:48:13;21.40;57.40
27940;DHT22;15275;51.716;14.324;2023-04-10T15:50:38;21.30;57.10
27940;DHT22;15275;51.716;14.324;2023-04-10T15:53:08;21.20;57.50
27940;DHT22;15275;51.716;14.324;2023-04-10T15:55:38;21.00;57.10
27940;DHT22;15275;51.716;14.324;2023-04-10T15:58:05;20.90;56.30
27940;DHT22;15275;51.716;14.324;2023-04-10T16:00:30;20.70;57.60
27940;DHT22;15275;51.716;14.324;2023-04-10T16:02:56;20.60;57.90
27940;DHT22;15275;51.716;14.324;2023-04-10T16:05:22;20.50;57.90
27940;DHT22;15275;51.716;14.324;2023-04-10T16:07:48;20.40;58.40
27940;DHT22;15275;51.716;14.324;2023-04-10T16:10:14;20.30;58.80
27940;DHT22;15275;51.716;14.324;2023-04-10T16:12:40;20.20;59.10